aviador You're here:

BGTL Decoded Metar

THULE in GREENLAND
Report Time2018-02-21 20:56:00
UTC Time2018-02-21 21:13:09
Flight Rules mvfr MVFR
Wind230° at 03 kt
W.Decomp.*RWY 26: 2.8 kt HW 1.1 kt RCW
W.Rank230° ranks 24
Current wind is below 230° avg. (5.9)
Visibility9999 m
Phenomena:N/A
Clouds:Broken 023 Hf
Broken 100 Hf
Expected CloudBase > 1,200 ft AGL from Temp-Dew spread
Ceiling2,300 ft
Temp-20°C (ISA -34)
Dew Point-23°C (77% RH)
AAT-24.8°C
QNH1006 hPa
Density Alt-3,904 ft
Elevation253 ft
Report Wrong Elevation
Raw Report
BGTL 212056Z AUTO 23003KT 9999 BKN023 BKN100 M20/M23 A2972 RMK AO2
CIG 014 RWY26 SLP055 T12051235 57021 TSNO $=

Extra information for BGTL:More info

Metar Taf Metar & Taf Last 4 Metars F.Rules Stats Wind Profile Meteogram Temp Stats Airport Information Weather charts Add Link Nearby VenuesMetar ALERT Operation Metar Decoded Social comments